22:07
Airports
History
Links
Donate
Help keep this website running!
PayPal
Bitcoin
This page is community maintained. The information is intended for PC simulator navigation or reference.
Always use approved charts for navigation.
SBBI
Curitiba Bacacheri
Curitiba Bacacheri (SBBI)
Curitiba, Parana, Brazil (82510)
(C)
Lat/Lng:25° 24' 18.28" S / 49° 13' 55.33" W
-25.405079 / -49.232036
Elevation:3057'ft / 932mMSL
ID / ICAO:SBBI
Runways:1
Longest:18-36
Asphalt 1,400m / 4,594ft
Controlled:Yes
METAR20:00 GMT 2017-10-16
Altimeter: 30.24
Visibility: 6.2 statute miles
Wind: 8 knots (from 090°)
Temp: 17°c / 63°f
Humidity: 82.5%

METAR: SBBI 162000Z 09008KT 9999 BKN011 17/14 Q1024

(Powered by phpweather)
Airport Radio Frequencies
Ground: 121.8
Tower: 118.9
Approach: 129.55
Runway 18 / 36
Dimensions:1400.1 x 29.9m 4594' x 98'ft
Surface:Asphalt
Edge Lights:Medium intensity
Runway 18 [A]Runway 36 [B]
Heading:157°TH 337°TH
Lat:
Lng:
25° 23' 57.35"S
49° 14' 4.9"W
25° 24' 39.22"S
49° 13' 45.76"W
User Notes and Comments
25° 24' 18.28" S / 49° 13' 55.33" W
Distance To
Airport ID:
Nearby Airports
(U) Piraquara 6.4 NM
SISY ESE 120°
4 Ultraleve Clube de Curitiba 6.9 NM
SSUL SE 135°
(C) Afonso Pena 9.3 NM
SBCT ( WX ) SSE 156°
4 Bonacin 10.4 NM
SJQE E 93°
4 Max Fontoura 18.7 NM
SSCF W 264°
4 Ely Rego 24.8 NM
SIJR WSW 247°
(U) FAZENDA THALIA 29.2 NM
SSTH WSW 254°
VFR Chart
Flight Planning at SkyVector.com